createdAt,value
2018-07-29T00:00:40.112Z,9.70
2018-07-29T00:03:08.839Z,9.50
2018-07-29T00:05:37.653Z,8.33
2018-07-29T00:08:06.964Z,7.80
2018-07-29T00:10:35.548Z,8.83
2018-07-29T00:13:04.491Z,8.53
2018-07-29T00:15:33.580Z,8.77
2018-07-29T00:18:02.747Z,8.50
2018-07-29T00:20:31.549Z,7.73
2018-07-29T00:23:01.088Z,8.63
2018-07-29T00:25:29.755Z,8.67
2018-07-29T00:27:59.083Z,7.97
2018-07-29T00:30:27.943Z,9.60
2018-07-29T00:32:56.800Z,8.77
2018-07-29T00:35:25.464Z,9.20
2018-07-29T00:37:54.526Z,10.10
2018-07-29T00:40:23.135Z,10.13
2018-07-29T00:42:51.724Z,9.90
2018-07-29T00:45:20.359Z,9.80
2018-07-29T00:47:49.159Z,10.73
2018-07-29T00:50:17.695Z,9.47
2018-07-29T00:52:47.108Z,9.37
2018-07-29T00:55:15.784Z,9.03
2018-07-29T00:57:44.468Z,9.63
2018-07-29T01:00:13.387Z,10.10
2018-07-29T01:02:41.991Z,9.60
2018-07-29T01:05:10.616Z,10.17
2018-07-29T01:07:39.585Z,9.53
2018-07-29T01:10:08.636Z,9.63
2018-07-29T01:12:37.615Z,9.83
2018-07-29T01:15:06.624Z,9.67
2018-07-29T01:17:36.007Z,9.07
2018-07-29T01:20:04.981Z,9.73
2018-07-29T01:22:33.851Z,9.40
2018-07-29T01:25:02.587Z,10.27
2018-07-29T01:27:31.143Z,10.90
2018-07-29T01:30:00.065Z,9.40
2018-07-29T01:32:28.839Z,9.97
2018-07-29T01:34:57.720Z,9.23
2018-07-29T01:37:26.338Z,9.27
2018-07-29T01:39:55.287Z,9.43
2018-07-29T01:42:24.220Z,8.23
2018-07-29T01:44:52.995Z,9.10
2018-07-29T01:47:21.660Z,9.33
2018-07-29T01:49:50.240Z,9.03
2018-07-29T01:52:19.397Z,10.50
2018-07-29T01:54:48.367Z,9.40
2018-07-29T01:57:16.909Z,8.70
2018-07-29T01:59:45.595Z,10.50
2018-07-29T02:02:16.580Z,10.03
2018-07-29T02:04:46.844Z,9.10
2018-07-29T02:07:16.876Z,9.00
2018-07-29T02:09:46.195Z,9.27
2018-07-29T02:12:14.905Z,9.40
2018-07-29T02:14:43.605Z,10.00
2018-07-29T02:17:12.567Z,9.30
2018-07-29T02:19:41.392Z,10.10
2018-07-29T02:22:10.196Z,9.70
2018-07-29T02:24:39.507Z,9.40
2018-07-29T02:27:08.094Z,8.90
2018-07-29T02:29:36.839Z,9.20
2018-07-29T02:32:06.847Z,10.33
2018-07-29T02:34:36.484Z,10.37
2018-07-29T02:37:05.425Z,9.53
2018-07-29T02:39:34.456Z,10.17
2018-07-29T02:42:03.835Z,8.60
2018-07-29T02:44:32.898Z,8.70
2018-07-29T02:47:02.075Z,10.10
2018-07-29T02:49:31.200Z,10.10
2018-07-29T02:51:59.998Z,9.60
2018-07-29T02:54:28.904Z,9.47
2018-07-29T02:56:57.674Z,10.30
2018-07-29T02:59:26.561Z,10.10
2018-07-29T03:01:55.901Z,9.67
2018-07-29T03:04:24.667Z,9.77
2018-07-29T03:06:53.416Z,9.33
2018-07-29T03:09:22.512Z,9.57
2018-07-29T03:11:51.200Z,9.73
2018-07-29T03:14:19.855Z,9.67
2018-07-29T03:16:48.836Z,11.00
2018-07-29T03:19:17.500Z,8.87
2018-07-29T03:21:46.684Z,9.87
2018-07-29T03:24:15.383Z,9.70
2018-07-29T03:26:44.204Z,9.30
2018-07-29T03:29:13.132Z,10.60
2018-07-29T03:31:42.276Z,10.80
2018-07-29T03:34:11.347Z,11.00
2018-07-29T03:36:40.074Z,9.23
2018-07-29T03:39:10.931Z,10.53
2018-07-29T03:41:39.936Z,10.97
2018-07-29T03:44:09.156Z,11.30
2018-07-29T03:46:38.707Z,11.00
2018-07-29T03:49:07.494Z,10.10
2018-07-29T03:51:36.385Z,11.10
2018-07-29T03:54:05.556Z,11.30
2018-07-29T03:56:34.308Z,11.77
2018-07-29T03:59:03.046Z,11.40
2018-07-29T04:01:32.643Z,11.03
2018-07-29T04:04:01.844Z,10.10
2018-07-29T04:06:30.502Z,11.77
2018-07-29T04:08:59.099Z,11.57
2018-07-29T04:11:27.955Z,10.93
2018-07-29T04:13:57.056Z,11.70
2018-07-29T04:16:25.677Z,12.07
2018-07-29T04:18:59.915Z,10.63
2018-07-29T04:21:28.579Z,11.20
2018-07-29T04:23:57.318Z,10.40
2018-07-29T04:26:25.924Z,11.93
2018-07-29T04:28:55.100Z,12.10
2018-07-29T04:31:23.716Z,12.03
2018-07-29T04:33:52.489Z,12.90
2018-07-29T04:36:21.622Z,11.60
2018-07-29T04:38:50.320Z,10.53
2018-07-29T04:41:19.064Z,11.03
2018-07-29T04:43:48.207Z,10.83
2018-07-29T04:46:17.456Z,10.63
2018-07-29T04:48:46.167Z,11.23
2018-07-29T04:51:15.663Z,13.10
2018-07-29T04:53:44.546Z,11.50
2018-07-29T04:56:14.355Z,12.83
2018-07-29T04:58:43.765Z,12.70
2018-07-29T05:01:12.840Z,10.93
2018-07-29T05:03:41.590Z,12.03
2018-07-29T05:06:10.855Z,12.47
2018-07-29T05:08:39.831Z,12.00
2018-07-29T05:11:08.788Z,11.00
2018-07-29T05:13:37.438Z,12.30
2018-07-29T05:16:06.093Z,12.10
2018-07-29T05:18:34.771Z,12.23
2018-07-29T05:21:04.300Z,13.20
2018-07-29T05:23:33.299Z,10.67
2018-07-29T05:26:01.982Z,13.53
2018-07-29T05:28:31.688Z,12.50
2018-07-29T05:31:01.441Z,11.20
2018-07-29T05:33:33.207Z,11.37
2018-07-29T05:36:02.200Z,11.27
2018-07-29T05:38:31.160Z,10.20
2018-07-29T05:41:00.102Z,11.50
2018-07-29T05:43:31.090Z,11.40
2018-07-29T05:45:59.819Z,12.10
2018-07-29T05:48:28.989Z,11.83
2018-07-29T05:50:57.947Z,12.10
2018-07-29T05:53:26.752Z,12.10
2018-07-29T05:55:55.453Z,12.00
2018-07-29T05:58:24.083Z,12.30
2018-07-29T06:00:52.696Z,12.07
2018-07-29T06:03:21.371Z,12.17
2018-07-29T06:05:50.568Z,10.70
2018-07-29T06:08:19.423Z,12.00
2018-07-29T06:10:48.126Z,12.47
2018-07-29T06:13:17.021Z,12.97
2018-07-29T06:15:45.768Z,10.90
2018-07-29T06:18:14.612Z,12.23
2018-07-29T06:20:43.289Z,12.27
2018-07-29T06:23:12.000Z,11.90
2018-07-29T06:25:41.106Z,11.07
2018-07-29T06:28:09.889Z,12.03
2018-07-29T06:30:38.672Z,12.00
2018-07-29T06:33:07.331Z,11.17
2018-07-29T06:35:36.033Z,12.00
2018-07-29T06:38:06.171Z,11.90
2018-07-29T06:40:35.375Z,11.67
2018-07-29T06:43:04.132Z,11.57
2018-07-29T06:45:33.011Z,11.10
2018-07-29T06:48:01.676Z,11.43
2018-07-29T06:50:30.417Z,10.07
2018-07-29T06:52:59.089Z,9.30
2018-07-29T06:55:27.639Z,9.83
2018-07-29T06:57:56.301Z,10.57
2018-07-29T07:00:25.062Z,10.23
2018-07-29T07:02:53.699Z,8.50
2018-07-29T07:05:22.384Z,9.90
2018-07-29T07:07:51.268Z,9.80
2018-07-29T07:10:20.118Z,9.30
2018-07-29T07:12:49.688Z,9.47
2018-07-29T07:15:18.998Z,9.27
2018-07-29T07:17:47.820Z,9.60
2018-07-29T07:20:16.574Z,10.17
2018-07-29T07:22:45.795Z,8.90
2018-07-29T07:25:15.055Z,9.10
2018-07-29T07:27:43.995Z,8.63
2018-07-29T07:30:12.757Z,8.43
2018-07-29T07:32:42.875Z,8.80
2018-07-29T07:35:11.805Z,9.50
2018-07-29T07:37:40.607Z,8.50
2018-07-29T07:40:09.296Z,10.00
2018-07-29T07:42:38.680Z,8.30
2018-07-29T07:45:07.371Z,7.93
2018-07-29T07:47:35.981Z,8.23
2018-07-29T07:50:04.976Z,9.17
2018-07-29T07:52:33.759Z,8.90
2018-07-29T07:55:02.368Z,9.90
2018-07-29T07:57:31.506Z,10.40
2018-07-29T08:00:00.482Z,9.13
2018-07-29T08:02:29.215Z,9.00
2018-07-29T08:04:57.972Z,8.70
2018-07-29T08:07:26.723Z,9.13
2018-07-29T08:09:55.551Z,9.90
2018-07-29T08:12:24.833Z,9.20
2018-07-29T08:14:53.611Z,8.53
2018-07-29T08:17:22.373Z,8.53
2018-07-29T08:19:51.332Z,8.77
2018-07-29T08:22:20.144Z,8.17
2018-07-29T08:24:48.783Z,8.97
2018-07-29T08:27:17.772Z,8.53
2018-07-29T08:29:46.679Z,9.60
2018-07-29T08:32:15.448Z,10.70
2018-07-29T08:34:44.639Z,8.20
2018-07-29T08:37:14.132Z,8.10
2018-07-29T08:39:42.915Z,8.53
2018-07-29T08:42:11.932Z,8.27
2018-07-29T08:44:40.607Z,8.63
2018-07-29T08:47:09.729Z,7.97
2018-07-29T08:49:38.397Z,9.10
2018-07-29T08:52:07.910Z,7.77
2018-07-29T08:54:36.724Z,8.90
2018-07-29T08:57:05.712Z,8.20
2018-07-29T08:59:34.525Z,7.10
2018-07-29T09:02:03.540Z,8.30
2018-07-29T09:04:32.364Z,8.20
2018-07-29T09:07:01.016Z,7.50
2018-07-29T09:09:29.753Z,8.27
2018-07-29T09:11:58.519Z,7.83
2018-07-29T09:14:27.312Z,7.70
2018-07-29T09:16:55.907Z,8.30
2018-07-29T09:19:24.545Z,8.60
2018-07-29T09:21:53.212Z,8.23
2018-07-29T09:24:22.162Z,6.80
2018-07-29T09:26:51.780Z,7.97
2018-07-29T09:29:20.472Z,7.67
2018-07-29T09:31:49.198Z,8.00
2018-07-29T09:34:18.044Z,7.37
2018-07-29T09:36:46.760Z,7.00
2018-07-29T09:39:15.661Z,7.63
2018-07-29T09:41:44.481Z,6.87
2018-07-29T09:44:13.361Z,7.47
2018-07-29T09:46:42.164Z,6.70
2018-07-29T09:49:11.275Z,6.27
2018-07-29T09:51:39.852Z,6.23
2018-07-29T09:54:08.545Z,7.20
2018-07-29T09:56:37.337Z,5.90
2018-07-29T09:59:06.008Z,6.17
2018-07-29T10:01:34.749Z,6.07
2018-07-29T10:04:03.549Z,5.53
2018-07-29T10:06:32.180Z,5.80
2018-07-29T10:09:00.861Z,6.20
2018-07-29T10:11:29.951Z,4.80
2018-07-29T10:13:58.703Z,5.17
2018-07-29T10:16:27.259Z,4.93
2018-07-29T10:18:55.952Z,5.50
2018-07-29T10:21:24.649Z,5.13
2018-07-29T10:23:53.672Z,4.80
2018-07-29T10:26:22.513Z,5.17
2018-07-29T10:28:51.411Z,4.60
2018-07-29T10:31:20.096Z,4.67
2018-07-29T10:33:48.821Z,4.37
2018-07-29T10:36:17.886Z,4.10
2018-07-29T10:38:46.576Z,4.23
2018-07-29T10:41:15.496Z,4.20
2018-07-29T10:43:44.243Z,4.65
2018-07-29T10:46:12.934Z,5.30
2018-07-29T10:48:42.091Z,4.90
2018-07-29T10:51:10.829Z,4.40
2018-07-29T10:53:39.504Z,4.53
2018-07-29T10:56:08.222Z,3.97
2018-07-29T10:58:36.965Z,4.60
2018-07-29T11:01:05.764Z,4.10
2018-07-29T11:03:34.739Z,4.10
2018-07-29T11:06:03.816Z,4.53
2018-07-29T11:08:32.504Z,4.00
2018-07-29T11:11:01.273Z,4.63
2018-07-29T11:13:30.043Z,3.90
2018-07-29T11:15:58.731Z,4.40
2018-07-29T11:18:28.036Z,4.47
2018-07-29T11:20:56.813Z,4.27
2018-07-29T11:23:25.603Z,4.37
2018-07-29T11:25:54.631Z,4.60
2018-07-29T11:28:23.520Z,4.97
2018-07-29T11:30:52.248Z,4.13
2018-07-29T11:33:20.999Z,5.50
2018-07-29T11:35:49.627Z,4.83
2018-07-29T11:38:18.214Z,4.40
2018-07-29T11:40:47.133Z,4.10
2018-07-29T11:43:15.891Z,4.10
2018-07-29T11:45:44.667Z,4.30
2018-07-29T11:48:13.918Z,5.40
2018-07-29T11:50:42.671Z,4.37
2018-07-29T11:53:11.564Z,4.83
2018-07-29T11:55:40.328Z,5.03
2018-07-29T11:58:08.975Z,4.07
2018-07-29T12:00:38.032Z,4.67
2018-07-29T12:03:07.045Z,4.57
2018-07-29T12:05:36.528Z,5.40
2018-07-29T12:08:05.389Z,5.10
2018-07-29T12:10:34.355Z,4.67
2018-07-29T12:13:03.256Z,4.87
2018-07-29T12:15:31.863Z,4.03
2018-07-29T12:18:01.048Z,4.57
2018-07-29T12:20:29.717Z,3.87
2018-07-29T12:22:58.299Z,4.33
2018-07-29T12:25:27.054Z,3.58
2018-07-29T12:27:55.708Z,4.17
2018-07-29T12:30:24.512Z,3.85
2018-07-29T12:32:53.839Z,3.80
2018-07-29T12:35:22.417Z,3.87
2018-07-29T12:37:51.227Z,3.60
2018-07-29T12:40:20.104Z,3.60
2018-07-29T12:42:48.844Z,4.15
2018-07-29T12:45:17.677Z,5.08
2018-07-29T12:47:46.357Z,3.80
2018-07-29T12:50:15.135Z,3.77
2018-07-29T12:52:43.857Z,3.85
2018-07-29T12:55:13.328Z,4.10
2018-07-29T12:57:42.410Z,4.23
2018-07-29T13:00:11.190Z,4.33
2018-07-29T13:02:40.121Z,4.30
2018-07-29T13:05:09.341Z,4.97
2018-07-29T13:07:38.229Z,4.20
2018-07-29T13:10:07.481Z,4.10
2018-07-29T13:12:36.173Z,4.60
2018-07-29T13:15:05.353Z,3.80
2018-07-29T13:17:34.316Z,4.67
2018-07-29T13:20:03.089Z,4.27
2018-07-29T13:22:31.799Z,4.23
2018-07-29T13:25:01.673Z,4.30
2018-07-29T13:27:30.580Z,4.50
2018-07-29T13:29:59.264Z,3.67
2018-07-29T13:32:27.831Z,4.07
2018-07-29T13:34:56.553Z,3.50
2018-07-29T13:37:25.188Z,3.42
2018-07-29T13:39:54.096Z,3.60
2018-07-29T13:42:22.732Z,3.30
2018-07-29T13:44:51.432Z,3.83
2018-07-29T13:47:20.402Z,2.95
2018-07-29T13:49:49.159Z,3.33
2018-07-29T13:52:17.988Z,3.67
2018-07-29T13:54:46.593Z,3.12
2018-07-29T13:57:15.421Z,3.15
2018-07-29T13:59:44.363Z,2.60
2018-07-29T14:02:13.095Z,3.17
2018-07-29T14:04:41.716Z,3.22
2018-07-29T14:07:10.513Z,3.50
2018-07-29T14:09:39.771Z,3.70
2018-07-29T14:12:08.844Z,3.20
2018-07-29T14:14:37.592Z,3.50
2018-07-29T14:17:06.345Z,3.80
2018-07-29T14:19:35.022Z,3.75
2018-07-29T14:22:03.719Z,3.57
2018-07-29T14:24:32.360Z,3.90
2018-07-29T14:27:01.553Z,2.97
2018-07-29T14:29:30.480Z,3.47
2018-07-29T14:31:59.436Z,3.87
2018-07-29T14:34:28.296Z,3.85
2018-07-29T14:36:57.686Z,3.37
2018-07-29T14:39:26.692Z,3.60
2018-07-29T14:41:55.420Z,4.13
2018-07-29T14:44:24.346Z,3.90
2018-07-29T14:46:53.419Z,4.23
2018-07-29T14:49:22.123Z,4.50
2018-07-29T14:51:50.983Z,5.00
2018-07-29T14:54:20.036Z,4.60
2018-07-29T14:56:48.896Z,4.20
2018-07-29T14:59:17.443Z,4.43
2018-07-29T15:01:47.503Z,3.90
2018-07-29T15:04:16.184Z,4.17
2018-07-29T15:06:44.816Z,4.10
2018-07-29T15:09:13.635Z,3.03
2018-07-29T15:11:42.694Z,3.43
2018-07-29T15:14:11.512Z,4.13
2018-07-29T15:16:40.517Z,4.00
2018-07-29T15:19:09.315Z,4.20
2018-07-29T15:21:38.009Z,4.53
2018-07-29T15:24:06.880Z,3.83
2018-07-29T15:26:35.524Z,4.30
2018-07-29T15:29:04.741Z,4.20
2018-07-29T15:31:34.688Z,3.73
2018-07-29T15:34:03.582Z,4.23
2018-07-29T15:36:32.323Z,4.47
2018-07-29T15:39:01.031Z,3.90
2018-07-29T15:41:29.815Z,4.70
2018-07-29T15:43:58.544Z,4.67
2018-07-29T15:46:27.355Z,4.20
2018-07-29T15:48:56.051Z,4.87
2018-07-29T15:51:24.903Z,4.50
2018-07-29T15:53:53.563Z,4.87
2018-07-29T15:56:22.338Z,4.37
2018-07-29T15:58:51.239Z,5.13
2018-07-29T16:01:20.243Z,4.77
2018-07-29T16:03:48.926Z,4.60
2018-07-29T16:06:17.831Z,5.00
2018-07-29T16:08:46.704Z,5.13
2018-07-29T16:11:15.679Z,4.90
2018-07-29T16:13:44.811Z,4.77
2018-07-29T16:16:13.672Z,4.80
2018-07-29T16:18:42.706Z,5.43
2018-07-29T16:21:11.640Z,4.57
2018-07-29T16:23:40.575Z,4.63
2018-07-29T16:26:09.215Z,4.70
2018-07-29T16:28:37.927Z,4.00
2018-07-29T16:31:06.823Z,4.90
2018-07-29T16:33:35.453Z,4.40
2018-07-29T16:36:04.265Z,5.40
2018-07-29T16:38:33.180Z,4.90
2018-07-29T16:41:01.856Z,4.70
2018-07-29T16:43:30.576Z,4.63
2018-07-29T16:45:59.340Z,5.23
2018-07-29T16:48:28.011Z,4.17
2018-07-29T16:50:56.589Z,5.20
2018-07-29T16:53:25.812Z,4.70
2018-07-29T16:55:54.576Z,3.83
2018-07-29T16:58:23.471Z,4.53
2018-07-29T17:00:52.155Z,4.80
2018-07-29T17:03:20.856Z,4.30
2018-07-29T17:05:50.040Z,4.57
2018-07-29T17:08:18.803Z,4.33
2018-07-29T17:10:47.389Z,4.97
2018-07-29T17:13:16.099Z,5.30
2018-07-29T17:15:44.812Z,5.00
2018-07-29T17:18:13.720Z,5.37
2018-07-29T17:20:42.342Z,5.23
2018-07-29T17:23:11.532Z,5.40
2018-07-29T17:25:40.239Z,5.30
2018-07-29T17:28:11.299Z,5.03
2018-07-29T17:30:39.937Z,4.80
2018-07-29T17:33:08.535Z,5.83
2018-07-29T17:35:37.324Z,4.70
2018-07-29T17:38:06.333Z,6.73
2018-07-29T17:40:35.162Z,5.60
2018-07-29T17:43:04.560Z,5.80
2018-07-29T17:45:33.296Z,5.27
2018-07-29T17:48:02.465Z,5.53
2018-07-29T17:50:31.445Z,5.57
2018-07-29T17:53:01.197Z,6.27
2018-07-29T17:55:30.291Z,5.73
2018-07-29T17:57:59.535Z,5.73
2018-07-29T18:00:28.239Z,5.40
2018-07-29T18:02:57.072Z,6.80
2018-07-29T18:05:26.129Z,6.07
2018-07-29T18:07:55.072Z,6.33
2018-07-29T18:10:23.837Z,6.40
2018-07-29T18:12:52.776Z,6.50
2018-07-29T18:15:21.324Z,7.20
2018-07-29T18:17:50.270Z,6.77
2018-07-29T18:20:19.081Z,5.70
2018-07-29T18:22:47.703Z,6.77
2018-07-29T18:25:16.529Z,7.00
2018-07-29T18:27:45.295Z,6.77
2018-07-29T18:30:14.148Z,6.57
2018-07-29T18:32:42.950Z,7.50
2018-07-29T18:35:11.772Z,6.37
2018-07-29T18:37:40.420Z,6.63
2018-07-29T18:40:09.794Z,7.57
2018-07-29T18:42:38.545Z,7.00
2018-07-29T18:45:07.554Z,7.70
2018-07-29T18:47:36.402Z,6.20
2018-07-29T18:50:05.992Z,6.73
2018-07-29T18:52:35.006Z,7.53
2018-07-29T18:55:03.595Z,6.50
2018-07-29T18:57:32.800Z,8.30
2018-07-29T19:00:01.583Z,6.30
2018-07-29T19:02:30.352Z,6.80
2018-07-29T19:04:59.051Z,7.50
2018-07-29T19:07:27.625Z,7.40
2018-07-29T19:09:56.553Z,7.43
2018-07-29T19:12:25.240Z,6.97
2018-07-29T19:14:53.884Z,6.97
2018-07-29T19:17:22.881Z,7.13
2018-07-29T19:19:51.644Z,6.90
2018-07-29T19:22:22.652Z,7.77
2018-07-29T19:24:51.584Z,7.43
2018-07-29T19:27:20.830Z,7.40
2018-07-29T19:29:49.635Z,7.27
2018-07-29T19:32:18.521Z,7.03
2018-07-29T19:34:47.112Z,7.30
2018-07-29T19:37:15.852Z,7.50
2018-07-29T19:39:44.433Z,6.87
2018-07-29T19:42:13.223Z,7.77
2018-07-29T19:44:42.839Z,7.30
2018-07-29T19:47:11.761Z,7.50
2018-07-29T19:49:40.611Z,7.10
2018-07-29T19:52:09.689Z,7.43
2018-07-29T19:54:38.456Z,7.33
2018-07-29T19:57:07.185Z,8.20
2018-07-29T19:59:35.968Z,7.83
2018-07-29T20:02:05.445Z,7.40
2018-07-29T20:04:34.368Z,7.17
2018-07-29T20:07:03.277Z,8.47
2018-07-29T20:09:32.360Z,8.13
2018-07-29T20:12:01.056Z,6.93
2018-07-29T20:14:30.588Z,6.90
2018-07-29T20:16:59.535Z,8.10
2018-07-29T20:19:28.175Z,7.67
2018-07-29T20:21:57.216Z,7.40
2018-07-29T20:24:26.320Z,8.57
2018-07-29T20:26:55.038Z,7.90
2018-07-29T20:29:23.666Z,8.00
2018-07-29T20:31:52.872Z,7.47
2018-07-29T20:34:21.659Z,7.70
2018-07-29T20:36:50.588Z,7.50
2018-07-29T20:39:19.260Z,8.30
2018-07-29T20:41:48.171Z,8.90
2018-07-29T20:44:16.790Z,7.70
2018-07-29T20:46:46.361Z,8.17
2018-07-29T20:49:14.988Z,6.70
2018-07-29T20:51:43.765Z,7.73
2018-07-29T20:54:12.841Z,7.87
2018-07-29T20:56:42.701Z,7.63
2018-07-29T20:59:11.857Z,7.63
2018-07-29T21:01:40.697Z,8.33
2018-07-29T21:04:10.143Z,7.40
2018-07-29T21:06:38.832Z,7.63
2018-07-29T21:09:11.531Z,9.67
2018-07-29T21:11:41.067Z,8.30
2018-07-29T21:14:10.787Z,7.13
2018-07-29T21:16:39.540Z,8.57
2018-07-29T21:19:08.388Z,9.77
2018-07-29T21:21:37.285Z,8.20
2018-07-29T21:24:05.907Z,8.40
2018-07-29T21:26:34.632Z,8.30
2018-07-29T21:29:03.452Z,7.87
2018-07-29T21:31:32.503Z,9.27
2018-07-29T21:34:01.181Z,8.10
2018-07-29T21:36:29.859Z,8.73
2018-07-29T21:38:58.807Z,8.43
2018-07-29T21:41:27.441Z,8.60
2018-07-29T21:43:56.013Z,8.97
2018-07-29T21:46:25.007Z,8.73
2018-07-29T21:48:54.440Z,8.00
2018-07-29T21:51:23.697Z,8.30
2018-07-29T21:53:52.296Z,9.63
2018-07-29T21:56:21.044Z,8.10
2018-07-29T21:58:49.760Z,9.40
2018-07-29T22:01:18.532Z,7.87
2018-07-29T22:03:48.765Z,8.60
2018-07-29T22:06:18.779Z,9.10
2018-07-29T22:08:48.905Z,8.97
2018-07-29T22:11:18.232Z,9.00
2018-07-29T22:13:47.250Z,8.60
2018-07-29T22:16:16.261Z,9.30
2018-07-29T22:18:45.617Z,9.47
2018-07-29T22:21:14.884Z,9.20
2018-07-29T22:23:43.812Z,8.00
2018-07-29T22:26:12.916Z,8.40
2018-07-29T22:28:52.097Z,8.20
2018-07-29T22:31:27.760Z,10.60
2018-07-29T22:33:56.462Z,9.40
2018-07-29T22:36:25.024Z,8.93
2018-07-29T22:38:53.958Z,9.63
2018-07-29T22:41:23.012Z,9.53
2018-07-29T22:43:52.212Z,9.80
2018-07-29T22:46:21.462Z,9.30
2018-07-29T22:48:51.219Z,9.90
2018-07-29T22:51:20.897Z,9.27
2018-07-29T22:53:49.615Z,9.00
2018-07-29T22:56:18.665Z,9.97
2018-07-29T22:58:47.799Z,8.90
2018-07-29T23:01:16.595Z,9.20
2018-07-29T23:03:45.872Z,10.13
2018-07-29T23:06:14.683Z,9.63
2018-07-29T23:08:43.417Z,9.77
2018-07-29T23:11:12.129Z,10.30
2018-07-29T23:13:40.880Z,9.43
2018-07-29T23:16:09.483Z,10.40
2018-07-29T23:18:38.501Z,9.63
2018-07-29T23:21:07.226Z,10.97
2018-07-29T23:23:36.004Z,9.67
2018-07-29T23:26:04.995Z,10.37
2018-07-29T23:28:33.751Z,10.97
2018-07-29T23:31:02.412Z,11.13
2018-07-29T23:33:31.044Z,10.57
2018-07-29T23:35:59.667Z,9.73
2018-07-29T23:38:28.325Z,9.93
2018-07-29T23:40:57.367Z,10.20
2018-07-29T23:43:26.203Z,9.40
2018-07-29T23:45:54.907Z,9.90
2018-07-29T23:48:23.686Z,9.97
2018-07-29T23:50:52.787Z,10.03
2018-07-29T23:53:21.668Z,10.13
2018-07-29T23:55:50.611Z,10.10
2018-07-29T23:58:19.510Z,11.83
